Terminal Aerodrome Forecast
Issued by NWS Melbourne, FL

Home | Current Version | Previous Version | Text Only | Print | Product List | Glossary On
Versions: 1 2 3 4 5 6 7 8 9 10 11 12 13 14 15 16 17 18 19 20 21
207
FTUS42 KMLB 190520
TAFMLB
TAF
KMLB 190520Z 1906/2006 05012KT P6SM FEW030 SCT050 SCT250
     FM191400 04013G19KT P6SM VCSH SCT020 BKN040
     FM191800 04014G21KT P6SM VCSH SCT040 SCT100
     FM200000 04013KT P6SM FEW040 SCT250=

USA.gov is the U.S. government's official web portal to all federal, state and local government web resources and services.